Time;durP1;ratioP1;P1;durP2;ratioP2;P2;SDS_P1;SDS_P2;PMS_P1;PMS_P2;Temp;Humidity;BMP_temperature;BMP_pressure;BME280_temperature;BME280_humidity;BME280_pressure;Samples;Min_cycle;Max_cycle;Signal;HPM_P1;HPM_P2
2022/07/10 00:02:03;;;;;;;3.92;2.63;;;;;;;17.41;55.90;101511.34;4983340;28;20046;-45
2022/07/10 00:04:30;;;;;;;7.28;3.45;;;;;;;17.37;56.09;101509.63;4984342;28;20078;-44
2022/07/10 00:06:58;;;;;;;6.38;4.05;;;;;;;17.33;55.73;101502.69;4983151;28;20077;-46
2022/07/10 00:09:25;;;;;;;4.63;2.80;;;;;;;17.31;55.71;101504.44;4980453;28;20042;-44
2022/07/10 00:11:51;;;;;;;3.08;2.53;;;;;;;17.28;56.11;101499.22;4976082;28;20065;-45
2022/07/10 00:14:18;;;;;;;4.63;2.55;;;;;;;17.26;55.89;101495.75;4964907;28;20055;-45
2022/07/10 00:16:45;;;;;;;5.78;2.35;;;;;;;17.23;55.83;101506.25;4984025;28;20128;-44
2022/07/10 00:19:13;;;;;;;4.38;2.60;;;;;;;17.19;56.42;101495.78;4978611;28;20073;-46
2022/07/10 00:21:41;;;;;;;7.85;2.78;;;;;;;17.18;56.00;101493.19;4980877;28;20046;-46
2022/07/10 00:24:10;;;;;;;4.30;2.75;;;;;;;17.13;55.84;101489.75;4975913;28;20054;-44
2022/07/10 00:26:38;;;;;;;5.47;2.92;;;;;;;17.07;56.75;101490.66;4969321;28;20113;-45
2022/07/10 00:29:07;;;;;;;5.03;4.53;;;;;;;17.03;57.14;101487.16;4985865;28;20137;-43
2022/07/10 00:31:36;;;;;;;5.40;4.22;;;;;;;16.98;56.80;101486.31;4984702;28;20053;-43
2022/07/10 00:34:06;;;;;;;5.88;4.43;;;;;;;16.94;57.06;101490.72;4985607;28;20092;-44
2022/07/10 00:36:34;;;;;;;5.20;3.72;;;;;;;16.89;56.99;101487.22;4986740;28;20050;-45
2022/07/10 00:39:02;;;;;;;9.32;5.30;;;;;;;16.88;57.15;101495.13;4986565;28;20959;-44
2022/07/10 00:41:29;;;;;;;6.25;4.43;;;;;;;16.85;57.31;101480.28;4989383;28;20109;-45
2022/07/10 00:43:58;;;;;;;5.95;4.50;;;;;;;16.85;57.75;101482.91;4986751;28;20517;-43
2022/07/10 00:46:29;;;;;;;11.45;6.57;;;;;;;16.82;57.89;101481.16;4964631;28;20070;-43
2022/07/10 00:48:56;;;;;;;7.38;6.43;;;;;;;16.79;57.77;101485.56;4978964;28;20051;-43
2022/07/10 00:51:27;;;;;;;8.52;5.55;;;;;;;16.78;57.82;101487.31;4986873;28;20054;-44
2022/07/10 00:53:54;;;;;;;7.90;3.85;;;;;;;16.74;58.40;101482.09;4984291;28;20046;-44
2022/07/10 00:56:23;;;;;;;4.40;3.53;;;;;;;16.70;57.77;101476.91;4987495;28;20105;-43
2022/07/10 00:58:50;;;;;;;6.32;3.50;;;;;;;16.68;58.33;101482.97;4988983;28;20054;-43
2022/07/10 01:01:18;;;;;;;5.68;3.92;;;;;;;16.66;58.37;101479.53;4985073;28;20047;-45
2022/07/10 01:03:45;;;;;;;8.75;5.40;;;;;;;16.64;58.35;101471.69;4990389;28;20054;-43
2022/07/10 01:06:14;;;;;;;6.72;4.47;;;;;;;16.63;58.16;101472.56;4976033;28;20054;-43
2022/07/10 01:08:43;;;;;;;10.93;5.00;;;;;;;16.61;58.60;101469.06;4971568;28;20063;-43
2022/07/10 01:11:10;;;;;;;5.90;4.75;;;;;;;16.60;58.44;101462.13;4980975;28;20051;-43
2022/07/10 01:13:37;;;;;;;5.07;4.15;;;;;;;16.57;58.38;101464.75;4985405;28;20544;-44
2022/07/10 01:16:04;;;;;;;9.82;6.50;;;;;;;16.55;58.44;101462.13;4983756;28;20538;-44
2022/07/10 01:18:31;;;;;;;12.02;7.38;;;;;;;16.53;58.71;101463.03;4981924;28;20073;-43
2022/07/10 01:20:58;;;;;;;13.77;7.10;;;;;;;16.51;58.85;101462.19;4985653;28;20050;-44
2022/07/10 01:23:24;;;;;;;18.33;12.05;;;;;;;16.48;58.32;101459.56;4985653;28;20104;-45
2022/07/10 01:25:51;;;;;;;21.48;12.32;;;;;;;16.44;58.79;101459.56;4983639;28;20740;-44
2022/07/10 01:28:20;;;;;;;16.60;9.77;;;;;;;16.43;58.81;101457.84;4979696;28;20058;-45
2022/07/10 01:30:49;;;;;;;10.65;7.07;;;;;;;16.40;58.99;101452.63;4982958;28;20042;-43
2022/07/10 01:33:16;;;;;;;12.95;8.30;;;;;;;16.36;59.04;101450.03;4972699;28;20125;-43
2022/07/10 01:35:43;;;;;;;12.52;7.80;;;;;;;16.33;58.45;101445.69;4966614;28;20506;-44
2022/07/10 01:38:09;;;;;;;10.05;6.88;;;;;;;16.30;59.08;101453.53;4985879;28;20081;-44
2022/07/10 01:40:36;;;;;;;11.63;6.32;;;;;;;16.27;59.26;101451.81;4984445;28;20616;-44
2022/07/10 01:43:03;;;;;;;8.23;4.25;;;;;;;16.24;59.69;101456.19;4986874;28;20047;-43
2022/07/10 01:45:29;;;;;;;8.07;4.05;;;;;;;16.22;59.21;101447.47;4981991;28;20082;-44
2022/07/10 01:47:56;;;;;;;5.57;3.40;;;;;;;16.16;59.03;101449.25;4984960;28;20082;-43
2022/07/10 01:50:24;;;;;;;5.70;4.00;;;;;;;16.12;59.70;101447.50;4978098;28;20042;-43
2022/07/10 01:52:50;;;;;;;5.80;4.43;;;;;;;16.10;59.01;101444.03;4968003;28;20077;-44
2022/07/10 01:55:17;;;;;;;10.77;5.05;;;;;;;16.08;58.91;101445.78;4982449;28;20046;-43
2022/07/10 01:57:44;;;;;;;11.77;7.50;;;;;;;16.04;59.14;101444.03;4971140;28;20113;-43
2022/07/10 02:00:11;;;;;;;9.60;6.65;;;;;;;16.00;59.47;101443.19;4974358;28;20046;-45
2022/07/10 02:02:39;;;;;;;13.07;7.90;;;;;;;15.96;59.75;101441.47;4975140;28;20051;-45
2022/07/10 02:05:06;;;;;;;14.13;7.20;;;;;;;15.93;59.58;101437.09;4963799;28;20106;-43
2022/07/10 02:07:32;;;;;;;10.18;5.80;;;;;;;15.89;60.23;101437.97;4985164;28;21360;-44
2022/07/10 02:09:59;;;;;;;12.35;7.95;;;;;;;15.85;60.50;101433.63;4983183;28;20463;-43
2022/07/10 02:12:26;;;;;;;14.70;6.70;;;;;;;15.80;60.04;101432.75;4985399;28;20054;-43
2022/07/10 02:14:52;;;;;;;13.23;6.45;;;;;;;15.76;60.00;101428.41;4984658;28;20097;-43
2022/07/10 02:17:19;;;;;;;9.38;6.07;;;;;;;15.74;60.67;101435.38;4984279;28;20053;-42
2022/07/10 02:19:46;;;;;;;8.48;5.65;;;;;;;15.71;60.55;101430.16;4985899;28;20046;-45
2022/07/10 02:22:12;;;;;;;10.25;5.93;;;;;;;15.67;60.53;101430.16;4985375;28;20043;-43
2022/07/10 02:24:39;;;;;;;9.70;5.68;;;;;;;15.65;60.24;101431.94;4986684;28;20050;-43
2022/07/10 02:27:06;;;;;;;12.27;6.65;;;;;;;15.60;61.10;101428.44;4983652;28;20046;-44
2022/07/10 02:29:32;;;;;;;9.63;6.13;;;;;;;15.56;61.42;101426.69;4978521;28;20046;-44
2022/07/10 02:31:59;;;;;;;8.88;6.28;;;;;;;15.54;61.16;101428.47;4987994;28;20190;-44
2022/07/10 02:34:26;;;;;;;10.52;6.82;;;;;;;15.49;61.82;101430.19;4979473;28;20050;-44
2022/07/10 02:36:52;;;;;;;13.32;6.18;;;;;;;15.45;61.39;101423.22;4984515;28;20109;-44
2022/07/10 02:39:19;;;;;;;12.77;6.32;;;;;;;15.41;62.11;101428.44;4979540;28;20683;-43
2022/07/10 02:41:46;;;;;;;11.85;6.07;;;;;;;15.37;61.64;101421.50;4981018;28;20043;-46
2022/07/10 02:44:12;;;;;;;10.13;5.97;;;;;;;15.36;61.92;101418.88;4981803;28;20046;-44
2022/07/10 02:46:39;;;;;;;10.98;5.45;;;;;;;15.34;61.89;101421.53;4983859;28;20698;-43
2022/07/10 02:49:06;;;;;;;10.48;5.95;;;;;;;15.32;62.09;101415.41;4983369;28;20047;-43
2022/07/10 02:51:32;;;;;;;9.55;5.72;;;;;;;15.31;62.22;101416.28;4978522;28;20671;-44
2022/07/10 02:53:59;;;;;;;8.77;5.25;;;;;;;15.29;62.04;101424.13;4982455;28;20691;-44
2022/07/10 02:56:26;;;;;;;9.23;5.88;;;;;;;15.27;62.21;101419.78;4978743;28;20058;-44
2022/07/10 02:58:53;;;;;;;7.90;4.72;;;;;;;15.25;62.18;101416.28;4964004;28;20102;-43
2022/07/10 03:01:19;;;;;;;8.65;5.22;;;;;;;15.25;62.52;101416.28;4981292;28;20145;-43
2022/07/10 03:03:46;;;;;;;9.23;5.18;;;;;;;15.21;62.54;101414.53;4981257;28;20101;-43
2022/07/10 03:06:14;;;;;;;8.73;5.18;;;;;;;15.15;62.99;101413.69;4973195;28;21128;-43
2022/07/10 03:08:41;;;;;;;7.20;4.85;;;;;;;15.12;62.48;101411.06;4969535;28;20058;-42
2022/07/10 03:11:08;;;;;;;7.72;4.95;;;;;;;15.10;62.10;101407.56;4981654;28;20046;-43
2022/07/10 03:13:35;;;;;;;8.63;4.72;;;;;;;15.09;62.80;101400.63;4979508;28;20047;-43
2022/07/10 03:16:02;;;;;;;9.23;5.25;;;;;;;15.06;62.52;101405.84;4982788;28;20108;-43
2022/07/10 03:18:29;;;;;;;8.77;4.70;;;;;;;15.01;63.02;101408.47;4984288;28;20050;-43
2022/07/10 03:20:56;;;;;;;9.27;3.90;;;;;;;15.00;63.11;101408.47;4985592;28;20650;-43
2022/07/10 03:23:23;;;;;;;11.30;6.60;;;;;;;14.96;63.69;101415.41;4980233;28;20081;-44
2022/07/10 03:25:49;;;;;;;8.48;4.75;;;;;;;14.93;63.26;101410.16;4984194;28;20042;-43
2022/07/10 03:28:16;;;;;;;9.48;4.22;;;;;;;14.89;64.29;101409.31;4962965;28;20868;-43
2022/07/10 03:30:43;;;;;;;9.25;5.95;;;;;;;14.88;63.99;101407.59;4973950;28;20054;-43
2022/07/10 03:33:09;;;;;;;8.55;5.03;;;;;;;14.87;64.34;101410.19;4981774;28;20721;-43
2022/07/10 03:35:36;;;;;;;8.40;5.90;;;;;;;14.84;64.37;101408.44;4980840;28;20054;-44
2022/07/10 03:38:02;;;;;;;9.25;4.57;;;;;;;14.81;64.58;101408.44;4982818;28;20082;-42
2022/07/10 03:40:29;;;;;;;9.00;5.97;;;;;;;14.78;64.46;101400.59;4967336;28;20053;-43
2022/07/10 03:42:56;;;;;;;12.43;5.35;;;;;;;14.76;64.32;101402.31;4962406;28;20043;-44
2022/07/10 03:45:22;;;;;;;8.50;4.95;;;;;;;14.74;63.78;101404.03;4961724;28;20259;-44
2022/07/10 03:47:49;;;;;;;9.20;4.72;;;;;;;14.74;63.87;101404.03;4964756;28;20046;-43
2022/07/10 03:50:16;;;;;;;10.60;5.25;;;;;;;14.73;64.78;101397.09;4964923;28;20473;-42
2022/07/10 03:52:44;;;;;;;13.88;5.32;;;;;;;14.73;64.22;101403.16;4982374;28;20043;-45
2022/07/10 03:55:11;;;;;;;12.20;5.43;;;;;;;14.71;64.30;101398.81;4983106;28;20046;-44
2022/07/10 03:57:53;;;;;;;9.38;5.80;;;;;;;14.71;64.04;101401.44;4991003;28;20093;-45
2022/07/10 04:00:23;;;;;;;10.50;5.47;;;;;;;14.70;64.17;101391.88;4986113;28;20510;-42
2022/07/10 04:02:59;;;;;;;10.73;6.47;;;;;;;14.64;64.32;101393.59;4985471;28;20057;-44
2022/07/10 04:05:27;;;;;;;11.82;5.22;;;;;;;14.68;64.77;101388.38;4986057;28;20081;-44
2022/07/10 04:07:54;;;;;;;8.95;4.93;;;;;;;14.65;64.45;101387.53;4986392;28;20050;-42
2022/07/10 04:10:21;;;;;;;11.05;5.88;;;;;;;14.67;64.41;101386.66;4983364;28;20054;-43
2022/07/10 04:12:49;;;;;;;10.60;5.75;;;;;;;14.65;64.86;101384.03;4967054;28;20047;-44
2022/07/10 04:15:16;;;;;;;12.65;5.72;;;;;;;14.65;64.88;101390.13;4960743;28;20054;-43
2022/07/10 04:17:43;;;;;;;10.07;5.70;;;;;;;14.65;65.13;101384.91;4976144;28;20104;-42
2022/07/10 04:20:10;;;;;;;9.73;5.95;;;;;;;14.65;64.62;101384.91;4985132;28;20134;-42
2022/07/10 04:22:37;;;;;;;10.85;5.50;;;;;;;14.67;64.13;101386.66;4984367;28;20034;-43
2022/07/10 04:25:05;;;;;;;10.35;5.65;;;;;;;14.67;64.54;101387.53;4984137;28;20395;-42
2022/07/10 04:27:32;;;;;;;10.38;5.28;;;;;;;14.67;64.06;101387.53;4983176;28;20533;-43
2022/07/10 04:29:58;;;;;;;9.80;6.05;;;;;;;14.70;64.70;101387.53;4984887;28;20065;-44
2022/07/10 04:32:25;;;;;;;11.50;6.13;;;;;;;14.71;64.29;101378.84;4983077;28;20483;-44
2022/07/10 04:34:52;;;;;;;12.57;6.68;;;;;;;14.73;64.16;101384.06;4985739;28;20054;-44
2022/07/10 04:37:18;;;;;;;10.50;6.68;;;;;;;14.72;65.11;101384.91;4984574;28;20046;-42
2022/07/10 04:39:45;;;;;;;13.35;7.85;;;;;;;14.71;65.20;101383.16;4987471;28;20054;-43
2022/07/10 04:42:12;;;;;;;16.33;7.38;;;;;;;14.71;65.08;101388.38;4984230;28;20050;-42
2022/07/10 04:44:38;;;;;;;13.63;5.57;;;;;;;14.72;65.44;101384.91;4989536;28;20391;-44
2022/07/10 04:47:06;;;;;;;15.27;7.15;;;;;;;14.76;65.42;101386.69;4985838;28;20050;-44
2022/07/10 04:49:33;;;;;;;12.10;6.80;;;;;;;14.80;65.12;101382.34;4985290;28;20082;-43
2022/07/10 04:52:00;;;;;;;17.98;7.70;;;;;;;14.86;65.48;101377.16;4987225;28;20184;-42
2022/07/10 04:54:27;;;;;;;14.75;8.35;;;;;;;14.90;65.67;101379.75;4985576;28;20047;-43
2022/07/10 04:56:54;;;;;;;14.77;7.68;;;;;;;14.96;65.14;101378.03;4985799;28;20050;-43
2022/07/10 04:59:21;;;;;;;14.40;7.50;;;;;;;14.99;65.73;101378.00;4987090;28;20050;-44
2022/07/10 05:01:47;;;;;;;16.15;8.13;;;;;;;15.03;65.38;101380.63;4983827;28;20043;-43
2022/07/10 05:04:14;;;;;;;14.80;7.75;;;;;;;15.10;66.18;101375.41;4986222;28;20050;-44
2022/07/10 05:06:41;;;;;;;14.90;7.22;;;;;;;15.20;65.46;101376.28;4985990;28;20077;-43
2022/07/10 05:09:07;;;;;;;14.68;7.53;;;;;;;15.31;65.75;101373.66;4987060;28;20038;-43
2022/07/10 05:11:34;;;;;;;19.83;7.18;;;;;;;15.40;65.31;101379.72;4983823;28;20110;-43
2022/07/10 05:14:01;;;;;;;13.02;7.75;;;;;;;15.51;65.76;101382.31;4984538;28;20058;-43
2022/07/10 05:16:27;;;;;;;12.32;7.47;;;;;;;15.61;65.39;101377.97;4984541;28;20126;-42
2022/07/10 05:18:54;;;;;;;11.90;7.03;;;;;;;15.71;65.50;101383.16;4987398;28;20577;-43
2022/07/10 05:21:21;;;;;;;10.35;7.20;;;;;;;15.78;65.64;101379.66;4987648;28;20051;-44
2022/07/10 05:23:48;;;;;;;13.10;7.20;;;;;;;15.85;65.97;101375.28;4974605;28;20046;-45
2022/07/10 05:26:14;;;;;;;10.38;7.13;;;;;;;15.89;65.81;101377.88;4971068;28;20047;-44
2022/07/10 05:28:41;;;;;;;12.45;6.93;;;;;;;15.96;65.63;101372.63;4981430;28;20046;-44
2022/07/10 05:31:08;;;;;;;9.95;5.10;;;;;;;16.04;65.52;101376.09;4983590;28;20414;-43
2022/07/10 05:33:34;;;;;;;12.40;7.07;;;;;;;16.14;65.72;101376.94;4982138;28;20166;-43
2022/07/10 05:36:01;;;;;;;10.07;6.60;;;;;;;16.26;65.60;101382.09;4983586;28;20147;-43
2022/07/10 05:38:28;;;;;;;11.73;6.43;;;;;;;16.37;65.54;101384.66;4984527;28;20058;-43
2022/07/10 05:40:54;;;;;;;13.07;6.65;;;;;;;16.47;65.40;101379.34;4983808;28;20182;-44
2022/07/10 05:43:21;;;;;;;11.98;6.93;;;;;;;16.60;65.56;101378.41;4978209;28;20054;-44
2022/07/10 05:45:48;;;;;;;11.02;6.75;;;;;;;16.74;64.97;101383.56;4982217;28;20050;-44
2022/07/10 05:48:19;;;;;;;9.70;6.88;;;;;;;16.88;65.53;101390.44;4984507;28;20689;-45
2022/07/10 05:50:46;;;;;;;11.73;6.30;;;;;;;17.00;64.93;101379.88;4983041;28;20105;-43
2022/07/10 05:53:12;;;;;;;13.68;6.47;;;;;;;17.11;65.58;101387.66;4987418;28;20050;-43
2022/07/10 05:55:39;;;;;;;11.02;6.22;;;;;;;17.25;65.05;101384.06;4986666;28;20053;-44
2022/07/10 05:58:06;;;;;;;15.55;7.13;;;;;;;17.39;64.49;101378.69;4979728;28;20562;-43
2022/07/10 06:00:32;;;;;;;10.60;6.80;;;;;;;17.50;64.66;101379.47;4978226;28;20053;-44
2022/07/10 06:02:59;;;;;;;9.07;6.20;;;;;;;17.62;64.38;101380.22;4984603;28;20047;-44
2022/07/10 06:05:26;;;;;;;9.50;6.43;;;;;;;17.73;64.04;101387.03;4985456;28;20054;-44
2022/07/10 06:07:52;;;;;;;11.82;6.57;;;;;;;17.90;64.55;101378.13;4985245;28;20046;-45
2022/07/10 06:10:19;;;;;;;10.15;6.20;;;;;;;18.05;63.78;101386.69;4983392;28;20104;-44
2022/07/10 06:12:46;;;;;;;9.07;6.13;;;;;;;18.17;63.08;101389.16;4980478;28;20124;-46
2022/07/10 06:15:12;;;;;;;9.52;6.13;;;;;;;18.32;63.75;101389.88;4985392;28;20308;-44
2022/07/10 06:17:44;;;;;;;8.15;5.28;;;;;;;18.48;63.87;101380.03;4979570;28;20057;-44
2022/07/10 06:20:11;;;;;;;7.55;5.60;;;;;;;18.67;63.96;101385.84;4985983;28;20043;-45
2022/07/10 06:22:39;;;;;;;8.60;6.20;;;;;;;18.87;62.98;101385.56;4984987;28;20104;-43
2022/07/10 06:25:07;;;;;;;7.25;4.90;;;;;;;19.07;63.10;101378.25;4984819;28;20054;-44
2022/07/10 06:27:35;;;;;;;8.32;5.57;;;;;;;19.24;62.65;101378.84;4984630;28;20050;-44
2022/07/10 06:30:02;;;;;;;9.15;5.35;;;;;;;19.44;62.19;101382.88;4984213;28;20541;-45
2022/07/10 06:32:29;;;;;;;7.53;5.40;;;;;;;19.65;61.85;101381.59;4985036;28;20058;-45
2022/07/10 06:34:56;;;;;;;7.70;4.75;;;;;;;19.88;61.43;101376.75;4989163;28;20057;-44
2022/07/10 06:37:22;;;;;;;7.65;4.88;;;;;;;20.10;60.84;101374.56;4983865;28;20046;-45
2022/07/10 06:39:49;;;;;;;6.75;4.47;;;;;;;20.24;60.38;101379.56;4983932;28;20121;-44
2022/07/10 06:42:16;;;;;;;10.35;5.22;;;;;;;20.37;59.38;101368.75;4980606;28;20112;-45
2022/07/10 06:44:44;;;;;;;6.07;3.50;;;;;;;20.50;59.75;101370.19;4985520;28;20458;-45
2022/07/10 06:50:01;;;;;;;8.93;5.60;;;;;;;21.00;59.23;101369.03;4951556;28;20043;-46
2022/07/10 06:52:27;;;;;;;6.45;4.45;;;;;;;21.24;58.80;101361.38;4986325;28;20046;-46
2022/07/10 06:54:54;;;;;;;6.47;4.50;;;;;;;21.52;57.87;101365.88;4983829;28;20054;-47
2022/07/10 06:57:21;;;;;;;7.05;3.97;;;;;;;21.78;57.21;101372.22;4984777;28;20042;-52
2022/07/10 06:59:48;;;;;;;7.78;4.28;;;;;;;22.09;56.70;101371.31;4984704;28;20526;-47
2022/07/10 07:02:14;;;;;;;5.95;4.63;;;;;;;22.43;55.82;101363.28;4985822;28;20057;-49
2022/07/10 07:04:42;;;;;;;7.57;5.20;;;;;;;22.80;55.35;101367.38;4983859;28;20039;-49
2022/07/10 07:07:08;;;;;;;7.13;4.20;;;;;;;23.15;54.85;101371.53;4984251;28;20053;-48
2022/07/10 07:09:35;;;;;;;6.38;4.32;;;;;;;23.43;53.29;101375.88;4972161;28;20105;-49
2022/07/10 07:12:03;;;;;;;5.70;4.38;;;;;;;23.62;53.22;101376.97;4975528;28;20046;-49
2022/07/10 07:14:30;;;;;;;6.07;4.45;;;;;;;23.91;52.63;101375.91;4983533;28;20057;-46
2022/07/10 07:17:05;;;;;;;9.73;4.38;;;;;;;24.20;52.43;101381.88;4981039;28;20109;-47
2022/07/10 07:23:09;;;;;;;5.75;3.58;;;;;;;24.51;51.45;101378.00;4982864;28;20053;-46
2022/07/10 07:25:09;;;;;;;5.07;3.60;;;;;;;24.99;49.09;101365.47;4964393;28;20053;-46
2022/07/10 07:27:38;;;;;;;3.70;3.15;;;;;;;25.12;48.81;101363.16;4978991;28;20046;-47
2022/07/10 07:30:06;;;;;;;6.88;4.22;;;;;;;25.15;48.02;101368.34;4981307;28;20042;-48
2022/07/10 07:32:33;;;;;;;3.78;3.17;;;;;;;25.20;47.61;101362.84;4998297;28;20046;-48
2022/07/10 07:35:00;;;;;;;4.47;3.08;;;;;;;25.29;47.86;101361.56;4982109;28;20510;-50
2022/07/10 07:37:45;;;;;;;3.78;3.00;;;;;;;25.53;47.10;101369.38;4978153;28;21009;-48
2022/07/10 07:40:19;;;;;;;4.32;3.88;;;;;;;25.70;46.34;101359.81;4966734;28;20105;-45
2022/07/10 07:42:46;;;;;;;5.72;3.22;;;;;;;25.89;46.63;101360.66;4992094;28;20049;-47
2022/07/10 07:45:13;;;;;;;3.38;3.08;;;;;;;26.20;46.57;101365.47;4982915;28;20160;-48
2022/07/10 07:50:26;;;;;;;2.97;1.75;;;;;;;26.86;45.97;101364.03;5045097;28;20399;-46
2022/07/10 07:52:53;;;;;;;3.55;1.90;;;;;;;27.23;45.09;101358.63;4980750;28;20051;-45
2022/07/10 07:55:21;;;;;;;6.15;1.73;;;;;;;27.57;45.05;101366.59;4982202;28;20051;-46
2022/07/10 07:57:51;;;;;;;2.38;1.63;;;;;;;27.80;43.60;101368.03;5004221;28;20057;-44
2022/07/10 08:00:18;;;;;;;5.13;1.88;;;;;;;27.87;43.23;101365.91;4993958;28;20051;-44
2022/07/10 08:02:45;;;;;;;2.55;1.75;;;;;;;27.87;43.57;101376.56;4983004;28;20468;-46
2022/07/10 08:05:11;;;;;;;2.97;2.00;;;;;;;28.02;43.17;101365.97;4986697;28;20062;-45
2022/07/10 08:10:19;;;;;;;3.53;1.55;;;;;;;28.15;43.37;101363.50;5019161;27;20407;-46
2022/07/10 08:12:46;;;;;;;2.75;1.42;;;;;;;28.34;42.92;101356.19;5015350;28;20100;-46
2022/07/10 08:15:15;;;;;;;3.63;2.45;;;;;;;28.45;43.09;101352.94;5015648;28;20058;-44
2022/07/10 08:17:42;;;;;;;;;;;;;;;28.68;43.38;101361.38;5008728;28;20053;-46
2022/07/10 08:20:12;;;;;;;3.60;1.80;;;;;;;28.82;42.54;101360.56;5010064;28;19968;-44
2022/07/10 08:22:40;;;;;;;2.55;1.42;;;;;;;28.95;41.83;101357.19;5009031;28;20057;-47
2022/07/10 08:25:08;;;;;;;2.88;1.48;;;;;;;29.07;42.45;101353.78;5002483;28;20046;-44
2022/07/10 08:27:34;;;;;;;3.33;1.48;;;;;;;29.28;41.55;101355.22;4999454;28;20471;-45
2022/07/10 08:30:01;;;;;;;1.52;1.00;;;;;;;29.41;41.37;101356.16;5013520;28;20068;-45
2022/07/10 08:32:28;;;;;;;3.38;1.42;;;;;;;29.51;41.28;101351.97;5009212;28;20524;-45
2022/07/10 08:34:55;;;;;;;2.63;1.48;;;;;;;29.62;40.48;101358.50;4997250;28;20054;-46
2022/07/10 08:37:22;;;;;;;1.73;1.13;;;;;;;29.64;40.89;101353.91;5000870;28;20049;-44
2022/07/10 08:39:49;;;;;;;2.92;1.35;;;;;;;29.83;40.51;101350.06;5011375;28;20108;-45
2022/07/10 08:42:16;;;;;;;2.47;1.80;;;;;;;29.97;40.51;101350.03;5006155;28;20626;-46
2022/07/10 08:44:43;;;;;;;1.88;1.30;;;;;;;30.09;39.67;101352.88;5008203;28;20101;-45
2022/07/10 08:47:11;;;;;;;3.47;1.75;;;;;;;30.21;40.86;101349.41;5006188;28;20097;-44
2022/07/10 08:49:46;;;;;;;3.78;2.05;;;;;;;30.43;40.25;101348.00;5001026;28;20042;-44
2022/07/10 08:54:53;;;;;;;2.83;1.40;;;;;;;30.63;39.40;101335.09;5057158;27;20404;-43
2022/07/10 08:57:20;;;;;;;15.10;2.95;;;;;;;30.70;39.96;101336.38;5043093;28;20052;-44
2022/07/10 08:59:47;;;;;;;13.05;3.08;;;;;;;30.75;39.88;101331.63;5040879;28;20752;-44
2022/07/10 09:02:13;;;;;;;3.78;1.73;;;;;;;30.91;39.29;101330.56;5042372;28;20060;-45
2022/07/10 09:04:40;;;;;;;5.00;1.60;;;;;;;30.88;39.06;101336.13;5040586;28;20045;-44
2022/07/10 09:07:07;;;;;;;3.42;1.80;;;;;;;30.90;38.56;101336.88;5045468;28;20102;-43
2022/07/10 09:09:52;;;;;;;2.25;1.40;;;;;;;30.99;38.96;101333.56;5041853;28;20056;-43
2022/07/10 09:12:21;;;;;;;3.00;1.48;;;;;;;31.26;39.45;101337.06;5038751;28;20127;-45
2022/07/10 09:14:48;;;;;;;14.00;2.88;;;;;;;31.48;40.24;101325.75;5047986;28;20052;-47
2022/07/10 09:17:15;;;;;;;4.07;1.50;;;;;;;31.53;38.29;101328.94;5062432;28;20049;-47
2022/07/10 09:19:42;;;;;;;2.00;1.00;;;;;;;31.65;38.97;101329.84;5044401;28;20473;-47
2022/07/10 09:22:11;;;;;;;3.00;1.27;;;;;;;31.88;38.27;101329.16;5057636;28;20052;-46
2022/07/10 09:24:40;;;;;;;3.42;1.10;;;;;;;32.01;37.99;101335.31;5058072;28;20083;-49
2022/07/10 09:27:08;;;;;;;2.22;1.17;;;;;;;32.18;37.03;101336.75;5055642;28;20099;-46
2022/07/10 09:29:55;;;;;;;4.90;1.58;;;;;;;32.13;36.85;101335.38;5063793;28;20067;-43
2022/07/10 09:32:22;;;;;;;2.08;1.30;;;;;;;32.05;36.38;101331.44;5072671;28;20052;-44
2022/07/10 09:36:04;;;;;;;2.22;1.42;;;;;;;32.09;36.21;101336.59;5060160;28;20044;-43
2022/07/10 09:37:41;;;;;;;3.67;1.48;;;;;;;32.18;36.78;101336.75;5056596;28;20080;-44
2022/07/10 09:40:09;;;;;;;3.88;1.17;;;;;;;32.34;36.04;101329.38;5076560;28;20131;-44
2022/07/10 09:50:29;;;;;;;3.05;1.15;;;;;;;32.64;34.58;101320.88;5087335;27;20393;-45
2022/07/10 09:52:58;;;;;;;4.03;1.33;;;;;;;32.64;34.52;101315.50;5060885;28;20055;-45
2022/07/10 09:55:27;;;;;;;;;;;;;;;32.31;35.00;101319.75;5059105;28;20102;-43
2022/07/10 10:00:35;;;;;;;7.18;1.65;;;;;;;32.25;35.26;101312.19;5008398;28;20412;-44
2022/07/10 10:03:02;;;;;;;;;;;;;;;32.19;35.99;101305.47;4978692;28;20513;-44
2022/07/10 10:05:43;;;;;;;2.35;1.35;;;;;;;32.38;35.63;101309.44;4979214;28;19937;-46
2022/07/10 10:08:12;;;;;;;1.83;0.93;;;;;;;32.52;36.23;101305.72;4980349;28;20380;-44
2022/07/10 10:10:45;;;;;;;5.70;1.60;;;;;;;32.65;36.19;101311.84;4975537;28;20059;-43
2022/07/10 10:13:15;;;;;;;5.90;1.85;;;;;;;32.70;35.67;101295.41;5009387;28;20059;-45
2022/07/10 10:15:42;;;;;;;2.40;1.30;;;;;;;32.75;35.72;101297.72;4977969;28;20069;-45
2022/07/10 10:18:10;;;;;;;3.30;1.00;;;;;;;32.75;34.44;101301.25;4979437;28;20499;-45
2022/07/10 10:20:37;;;;;;;2.85;1.50;;;;;;;32.72;34.10;101296.13;4982783;28;20094;-44
2022/07/10 10:23:05;;;;;;;2.50;1.10;;;;;;;32.80;34.57;101288.34;4979911;28;20419;-46
2022/07/10 10:25:34;;;;;;;5.03;1.23;;;;;;;32.98;34.99;101297.72;4980069;28;20046;-45
2022/07/10 10:28:04;;;;;;;3.78;1.55;;;;;;;33.02;33.64;101285.84;4978581;28;20105;-45
2022/07/10 10:30:31;;;;;;;2.40;0.98;;;;;;;32.89;34.25;101292.13;4981986;28;20051;-47
2022/07/10 10:32:59;;;;;;;2.22;1.52;;;;;;;32.83;34.00;101290.75;4986757;28;20047;-46
2022/07/10 10:35:47;;;;;;;1.90;1.67;;;;;;;32.79;34.18;101286.63;4981479;28;20054;-44
2022/07/10 10:38:15;;;;;;;;;;;;;;;32.78;34.45;101290.28;4979600;28;20101;-47
2022/07/10 10:40:42;;;;;;;3.45;1.30;;;;;;;32.95;33.99;101285.41;4979627;28;19926;-48
2022/07/10 10:43:21;;;;;;;3.28;1.35;;;;;;;32.90;33.08;101287.63;4979448;28;20043;-44
2022/07/10 10:45:48;;;;;;;1.98;1.52;;;;;;;32.96;33.46;101284.47;4978197;28;20082;-42
2022/07/10 10:48:17;;;;;;;1.77;1.08;;;;;;;33.01;32.75;101290.31;4981448;28;20434;-45
2022/07/10 10:51:04;;;;;;;3.38;1.52;;;;;;;33.08;33.16;101275.47;4982960;28;20435;-44
2022/07/10 10:53:31;;;;;;;2.67;1.27;;;;;;;33.20;33.19;101272.78;4981078;28;20050;-46
2022/07/10 10:58:45;;;;;;;2.30;1.98;;;;;;;33.24;33.19;101263.50;5025871;28;20414;-45
2022/07/10 11:01:25;;;;;;;2.42;2.15;;;;;;;33.31;33.09;101263.84;5019248;28;20077;-44
2022/07/10 11:09:25;;;;;;;2.30;1.55;;;;;;;33.57;31.15;101264.44;5061235;28;20405;-47
2022/07/10 11:12:09;;;;;;;3.38;1.50;;;;;;;33.34;31.01;101275.16;5031814;28;20045;-49
2022/07/10 11:14:39;;;;;;;2.38;1.42;;;;;;;33.27;31.13;101260.56;5038275;28;20045;-43
2022/07/10 11:17:07;;;;;;;3.65;1.10;;;;;;;33.17;31.34;101262.28;5024397;28;20049;-44
2022/07/10 11:19:35;;;;;;;1.67;0.80;;;;;;;33.14;30.48;101262.53;5020534;28;20096;-43
2022/07/10 11:22:42;;;;;;;8.25;1.52;;;;;;;33.09;31.30;101260.19;5014713;28;20057;-44
2022/07/10 11:28:08;;;;;;;2.50;0.90;;;;;;;33.30;31.42;101262.97;5024969;28;20411;-45
2022/07/10 11:30:53;;;;;;;3.10;0.90;;;;;;;33.11;30.97;101263.63;5014599;28;20049;-46
2022/07/10 11:33:22;;;;;;;1.70;1.15;;;;;;;32.99;31.32;101251.16;5009633;28;20064;-45
2022/07/10 11:35:51;;;;;;;3.38;1.17;;;;;;;32.89;31.14;101251.03;5017385;28;20049;-46
2022/07/10 11:38:21;;;;;;;2.45;1.20;;;;;;;32.74;30.85;101240.53;5017071;28;20073;-44
2022/07/10 11:40:48;;;;;;;3.15;1.20;;;;;;;32.73;30.65;101244.22;5019556;28;20053;-47
2022/07/10 11:43:17;;;;;;;2.30;1.20;;;;;;;32.69;31.98;101237.38;5018795;28;20115;-44
2022/07/10 11:45:44;;;;;;;2.15;1.58;;;;;;;32.72;31.50;101247.84;5020698;28;20421;-45
2022/07/10 11:48:26;;;;;;;2.13;0.90;;;;;;;32.62;32.46;101242.34;5017627;28;20060;-45
2022/07/10 11:50:53;;;;;;;6.43;1.27;;;;;;;32.69;32.90;101248.09;5018727;28;20045;-47
2022/07/10 11:53:25;;;;;;;1.83;1.27;;;;;;;32.62;31.56;101244.19;5016316;28;20060;-45
2022/07/10 11:55:52;;;;;;;1.33;0.90;;;;;;;32.56;31.38;101238.31;5018038;28;20497;-46
2022/07/10 11:58:20;;;;;;;1.50;0.90;;;;;;;32.56;31.79;101232.97;5017743;28;20120;-44
2022/07/10 12:01:06;;;;;;;1.83;1.58;;;;;;;32.53;32.32;101230.53;5016516;28;20107;-44
2022/07/10 12:03:33;;;;;;;1.48;1.02;;;;;;;32.63;31.93;101229.81;5020958;28;20128;-45
2022/07/10 12:06:04;;;;;;;2.33;1.20;;;;;;;32.68;31.33;101231.16;5014365;28;20479;-49